sensor_id;sensor_type;location;lat;lon;timestamp;pressure;altitude;pressure_sealevel;temperature;humidity
28000;BME280;15328;50.860;10.562;2023-12-22T00:04:35;94499.59;;;5.27;53.52
28000;BME280;15328;50.860;10.562;2023-12-22T00:09:35;94481.13;;;5.15;54.88
28000;BME280;15328;50.860;10.562;2023-12-22T00:14:36;94493.59;;;5.20;53.96
28000;BME280;15328;50.860;10.562;2023-12-22T00:19:37;94494.78;;;5.12;53.77
28000;BME280;15328;50.860;10.562;2023-12-22T00:24:37;94504.03;;;5.15;54.47
28000;BME280;15328;50.860;10.562;2023-12-22T00:29:39;94507.72;;;5.14;54.02
28000;BME280;15328;50.860;10.562;2023-12-22T00:34:39;94497.88;;;5.21;54.17
28000;BME280;15328;50.860;10.562;2023-12-22T00:39:39;94480.56;;;5.25;53.54
28000;BME280;15328;50.860;10.562;2023-12-22T00:44:40;94462.69;;;5.27;53.77
28000;BME280;15328;50.860;10.562;2023-12-22T00:49:40;94474.03;;;5.27;53.23
28000;BME280;15328;50.860;10.562;2023-12-22T00:54:40;94471.16;;;5.29;53.37
28000;BME280;15328;50.860;10.562;2023-12-22T00:59:41;94468.03;;;5.32;52.70
28000;BME280;15328;50.860;10.562;2023-12-22T01:04:47;94460.47;;;5.36;53.57
28000;BME280;15328;50.860;10.562;2023-12-22T01:09:48;94492.06;;;5.47;52.91
28000;BME280;15328;50.860;10.562;2023-12-22T01:14:48;94494.75;;;5.36;53.31
28000;BME280;15328;50.860;10.562;2023-12-22T01:19:52;94479.41;;;5.33;53.79
28000;BME280;15328;50.860;10.562;2023-12-22T01:24:52;94488.09;;;5.33;54.05
28000;BME280;15328;50.860;10.562;2023-12-22T01:29:52;94495.00;;;5.22;54.35
28000;BME280;15328;50.860;10.562;2023-12-22T01:34:53;94507.63;;;5.20;54.79
28000;BME280;15328;50.860;10.562;2023-12-22T01:39:53;94495.00;;;5.22;56.51
28000;BME280;15328;50.860;10.562;2023-12-22T01:44:54;94495.09;;;5.16;56.98
28000;BME280;15328;50.860;10.562;2023-12-22T01:49:55;94509.56;;;5.13;57.73
28000;BME280;15328;50.860;10.562;2023-12-22T01:54:55;94524.44;;;5.19;57.51
28000;BME280;15328;50.860;10.562;2023-12-22T01:59:56;94511.84;;;5.10;58.20
28000;BME280;15328;50.860;10.562;2023-12-22T02:04:58;94490.53;;;5.11;57.31
28000;BME280;15328;50.860;10.562;2023-12-22T02:09:59;94476.09;;;5.14;57.34
28000;BME280;15328;50.860;10.562;2023-12-22T02:14:59;94487.44;;;5.03;56.99
28000;BME280;15328;50.860;10.562;2023-12-22T02:20:00;94513.81;;;5.03;56.64
28000;BME280;15328;50.860;10.562;2023-12-22T02:25:01;94484.72;;;4.97;55.22
28000;BME280;15328;50.860;10.562;2023-12-22T02:30:07;94484.69;;;5.09;55.14
28000;BME280;15328;50.860;10.562;2023-12-22T02:35:15;94491.09;;;5.13;55.06
28000;BME280;15328;50.860;10.562;2023-12-22T02:40:17;94505.56;;;5.22;54.08
28000;BME280;15328;50.860;10.562;2023-12-22T02:45:20;94492.25;;;5.17;53.95
28000;BME280;15328;50.860;10.562;2023-12-22T02:50:20;94520.69;;;5.27;53.36
28000;BME280;15328;50.860;10.562;2023-12-22T02:55:21;94497.75;;;5.27;53.38
28000;BME280;15328;50.860;10.562;2023-12-22T03:00:21;94499.13;;;5.30;52.41
28000;BME280;15328;50.860;10.562;2023-12-22T03:05:22;94496.38;;;5.25;51.18
28000;BME280;15328;50.860;10.562;2023-12-22T03:10:22;94528.25;;;5.23;53.13
28000;BME280;15328;50.860;10.562;2023-12-22T03:15:22;94503.72;;;5.23;54.23
28000;BME280;15328;50.860;10.562;2023-12-22T03:20:23;94503.16;;;5.21;54.72
28000;BME280;15328;50.860;10.562;2023-12-22T03:25:23;94488.81;;;5.17;53.91
28000;BME280;15328;50.860;10.562;2023-12-22T03:30:25;94500.63;;;5.14;52.24
28000;BME280;15328;50.860;10.562;2023-12-22T03:35:25;94505.09;;;5.14;51.28
28000;BME280;15328;50.860;10.562;2023-12-22T03:40:25;94500.72;;;5.19;50.77
28000;BME280;15328;50.860;10.562;2023-12-22T03:45:26;94507.50;;;5.27;51.12
28000;BME280;15328;50.860;10.562;2023-12-22T03:50:26;94506.56;;;5.33;50.77
28000;BME280;15328;50.860;10.562;2023-12-22T03:55:26;94523.31;;;5.27;50.37
28000;BME280;15328;50.860;10.562;2023-12-22T04:00:27;94509.66;;;5.30;50.55
28000;BME280;15328;50.860;10.562;2023-12-22T04:05:27;94512.75;;;5.39;50.91
28000;BME280;15328;50.860;10.562;2023-12-22T04:10:28;94515.72;;;5.42;51.27
28000;BME280;15328;50.860;10.562;2023-12-22T04:15:28;94543.81;;;5.48;50.90
28000;BME280;15328;50.860;10.562;2023-12-22T04:20:28;94567.06;;;5.63;51.81
28000;BME280;15328;50.860;10.562;2023-12-22T04:25:29;94575.69;;;5.58;53.09
28000;BME280;15328;50.860;10.562;2023-12-22T04:30:29;94571.00;;;5.49;53.23
28000;BME280;15328;50.860;10.562;2023-12-22T04:35:29;94566.28;;;5.39;54.50
28000;BME280;15328;50.860;10.562;2023-12-22T04:40:30;94538.09;;;5.28;55.19
28000;BME280;15328;50.860;10.562;2023-12-22T04:45:30;94544.88;;;5.24;54.78
28000;BME280;15328;50.860;10.562;2023-12-22T04:50:30;94566.53;;;5.26;54.25
28000;BME280;15328;50.860;10.562;2023-12-22T04:55:31;94558.72;;;5.19;52.27
28000;BME280;15328;50.860;10.562;2023-12-22T05:00:31;94533.84;;;5.27;52.64
28000;BME280;15328;50.860;10.562;2023-12-22T05:05:31;94539.13;;;5.27;51.45
28000;BME280;15328;50.860;10.562;2023-12-22T05:10:32;94548.19;;;5.31;51.84
28000;BME280;15328;50.860;10.562;2023-12-22T05:15:32;94532.13;;;5.33;51.21
28000;BME280;15328;50.860;10.562;2023-12-22T05:20:33;94543.81;;;5.37;50.94
28000;BME280;15328;50.860;10.562;2023-12-22T05:25:33;94545.41;;;5.38;52.23
28000;BME280;15328;50.860;10.562;2023-12-22T05:30:34;94529.59;;;5.38;51.73
28000;BME280;15328;50.860;10.562;2023-12-22T05:35:34;94515.72;;;5.42;52.38
28000;BME280;15328;50.860;10.562;2023-12-22T05:40:34;94512.38;;;5.47;51.94
28000;BME280;15328;50.860;10.562;2023-12-22T05:45:35;94536.25;;;5.40;51.87
28000;BME280;15328;50.860;10.562;2023-12-22T05:50:35;94522.94;;;5.35;52.83
28000;BME280;15328;50.860;10.562;2023-12-22T05:55:35;94530.06;;;5.35;52.31
28000;BME280;15328;50.860;10.562;2023-12-22T06:00:36;94553.69;;;5.30;53.12
28000;BME280;15328;50.860;10.562;2023-12-22T06:05:36;94556.56;;;5.28;53.46
28000;BME280;15328;50.860;10.562;2023-12-22T06:10:37;94562.97;;;5.32;53.26
28000;BME280;15328;50.860;10.562;2023-12-22T06:15:37;94555.53;;;5.29;53.39
28000;BME280;15328;50.860;10.562;2023-12-22T06:20:37;94538.09;;;5.28;53.08
28000;BME280;15328;50.860;10.562;2023-12-22T06:25:38;94568.00;;;5.34;53.27
28000;BME280;15328;50.860;10.562;2023-12-22T06:30:38;94576.28;;;5.25;54.08
28000;BME280;15328;50.860;10.562;2023-12-22T06:35:38;94600.44;;;5.11;54.65
28000;BME280;15328;50.860;10.562;2023-12-22T06:40:41;94573.34;;;4.92;53.59
28000;BME280;15328;50.860;10.562;2023-12-22T06:45:41;94558.25;;;4.87;53.42
28000;BME280;15328;50.860;10.562;2023-12-22T06:50:42;94604.63;;;4.88;55.24
28000;BME280;15328;50.860;10.562;2023-12-22T06:55:44;94608.06;;;4.77;57.98
28000;BME280;15328;50.860;10.562;2023-12-22T07:00:45;94607.28;;;4.47;58.35
28000;BME280;15328;50.860;10.562;2023-12-22T07:05:45;94617.81;;;4.47;58.71
28000;BME280;15328;50.860;10.562;2023-12-22T07:10:45;94626.75;;;4.46;58.35
28000;BME280;15328;50.860;10.562;2023-12-22T07:15:46;94646.22;;;4.56;57.76
28000;BME280;15328;50.860;10.562;2023-12-22T07:20:46;94652.41;;;4.50;57.59
28000;BME280;15328;50.860;10.562;2023-12-22T07:25:46;94673.56;;;4.44;56.91
28000;BME280;15328;50.860;10.562;2023-12-22T07:30:47;94657.56;;;4.57;56.62
28000;BME280;15328;50.860;10.562;2023-12-22T07:35:47;94681.19;;;4.63;55.94
28000;BME280;15328;50.860;10.562;2023-12-22T07:40:47;94672.47;;;4.63;55.04
28000;BME280;15328;50.860;10.562;2023-12-22T07:45:48;94681.47;;;4.74;54.80
28000;BME280;15328;50.860;10.562;2023-12-22T07:50:50;94684.81;;;4.81;54.26
28000;BME280;15328;50.860;10.562;2023-12-22T07:55:51;94683.69;;;4.88;54.32
28000;BME280;15328;50.860;10.562;2023-12-22T08:00:51;94694.38;;;4.93;53.63
28000;BME280;15328;50.860;10.562;2023-12-22T08:05:51;94719.38;;;5.03;53.49
28000;BME280;15328;50.860;10.562;2023-12-22T08:10:53;94728.91;;;5.15;52.80
28000;BME280;15328;50.860;10.562;2023-12-22T08:15:54;94726.28;;;5.15;52.51
28000;BME280;15328;50.860;10.562;2023-12-22T08:20:54;94741.91;;;5.28;52.67
28000;BME280;15328;50.860;10.562;2023-12-22T08:25:55;94742.63;;;5.36;52.13
28000;BME280;15328;50.860;10.562;2023-12-22T08:30:57;94766.13;;;5.37;52.55
28000;BME280;15328;50.860;10.562;2023-12-22T08:35:58;94756.81;;;5.35;52.59
28000;BME280;15328;50.860;10.562;2023-12-22T08:40:58;94780.22;;;5.43;52.09
28000;BME280;15328;50.860;10.562;2023-12-22T08:45:59;94778.84;;;5.40;51.88
28000;BME280;15328;50.860;10.562;2023-12-22T08:50:59;94779.44;;;5.42;51.50
28000;BME280;15328;50.860;10.562;2023-12-22T08:56:00;94782.63;;;5.44;51.36
28000;BME280;15328;50.860;10.562;2023-12-22T09:01:00;94781.97;;;5.49;51.98
28000;BME280;15328;50.860;10.562;2023-12-22T09:06:01;94781.75;;;5.50;51.14
28000;BME280;15328;50.860;10.562;2023-12-22T09:11:02;94792.78;;;5.59;50.91
28000;BME280;15328;50.860;10.562;2023-12-22T09:16:03;94787.97;;;5.68;51.75
28000;BME280;15328;50.860;10.562;2023-12-22T09:21:04;94803.91;;;5.73;51.07
28000;BME280;15328;50.860;10.562;2023-12-22T09:26:04;94804.06;;;5.78;51.39
28000;BME280;15328;50.860;10.562;2023-12-22T09:31:06;94808.53;;;5.89;51.00
28000;BME280;15328;50.860;10.562;2023-12-22T09:36:07;94815.88;;;5.87;51.11
28000;BME280;15328;50.860;10.562;2023-12-22T09:41:08;94823.28;;;5.97;51.12
28000;BME280;15328;50.860;10.562;2023-12-22T09:46:08;94834.97;;;6.01;51.11
28000;BME280;15328;50.860;10.562;2023-12-22T09:51:10;94830.06;;;6.04;50.37
28000;BME280;15328;50.860;10.562;2023-12-22T09:56:13;94821.13;;;6.05;50.46
28000;BME280;15328;50.860;10.562;2023-12-22T10:01:15;94827.66;;;6.14;50.40
28000;BME280;15328;50.860;10.562;2023-12-22T10:06:16;94804.72;;;6.03;48.69
28000;BME280;15328;50.860;10.562;2023-12-22T10:11:17;94825.56;;;5.93;49.77
28000;BME280;15328;50.860;10.562;2023-12-22T10:16:19;94791.56;;;5.85;51.45
28000;BME280;15328;50.860;10.562;2023-12-22T10:21:19;94820.22;;;5.70;54.20
28000;BME280;15328;50.860;10.562;2023-12-22T10:26:20;94839.50;;;5.40;56.82
28000;BME280;15328;50.860;10.562;2023-12-22T10:31:23;94825.38;;;5.35;57.00
28000;BME280;15328;50.860;10.562;2023-12-22T10:36:23;94804.38;;;5.28;58.03
28000;BME280;15328;50.860;10.562;2023-12-22T10:41:27;94784.63;;;5.19;59.03
28000;BME280;15328;50.860;10.562;2023-12-22T10:46:30;94767.88;;;5.13;60.34
28000;BME280;15328;50.860;10.562;2023-12-22T10:51:34;94784.81;;;5.06;61.13
28000;BME280;15328;50.860;10.562;2023-12-22T10:56:34;94787.13;;;5.14;61.64
28000;BME280;15328;50.860;10.562;2023-12-22T11:01:38;94764.22;;;5.14;62.54
28000;BME280;15328;50.860;10.562;2023-12-22T11:06:41;94784.25;;;5.15;63.01
28000;BME280;15328;50.860;10.562;2023-12-22T11:11:42;94788.50;;;5.16;63.39
28000;BME280;15328;50.860;10.562;2023-12-22T11:16:43;94753.78;;;5.19;62.92
28000;BME280;15328;50.860;10.562;2023-12-22T11:21:50;94731.53;;;5.15;62.05
28000;BME280;15328;50.860;10.562;2023-12-22T11:26:51;94729.88;;;5.21;62.41
28000;BME280;15328;50.860;10.562;2023-12-22T11:31:55;94723.41;;;5.17;61.59
28000;BME280;15328;50.860;10.562;2023-12-22T11:37:03;94738.47;;;5.28;61.82
28000;BME280;15328;50.860;10.562;2023-12-22T11:42:04;94726.09;;;5.40;61.70
28000;BME280;15328;50.860;10.562;2023-12-22T11:47:09;94734.94;;;5.34;61.61
28000;BME280;15328;50.860;10.562;2023-12-22T11:52:11;94724.53;;;5.51;61.49
28000;BME280;15328;50.860;10.562;2023-12-22T12:02:29;94704.59;;;5.55;60.98
28000;BME280;15328;50.860;10.562;2023-12-22T12:07:45;94712.72;;;5.53;60.74
28000;BME280;15328;50.860;10.562;2023-12-22T12:12:45;94694.84;;;5.55;60.52
28000;BME280;15328;50.860;10.562;2023-12-22T12:17:47;94658.59;;;5.63;60.13
28000;BME280;15328;50.860;10.562;2023-12-22T12:22:48;94662.16;;;5.56;60.33
28000;BME280;15328;50.860;10.562;2023-12-22T12:27:49;94674.19;;;5.64;60.66
28000;BME280;15328;50.860;10.562;2023-12-22T12:32:49;94667.53;;;5.62;60.57
28000;BME280;15328;50.860;10.562;2023-12-22T12:37:52;94668.56;;;5.61;61.14
28000;BME280;15328;50.860;10.562;2023-12-22T12:42:53;94681.19;;;5.58;61.90
28000;BME280;15328;50.860;10.562;2023-12-22T12:48:03;94690.91;;;5.46;63.87
28000;BME280;15328;50.860;10.562;2023-12-22T12:53:05;94672.34;;;5.53;63.92
28000;BME280;15328;50.860;10.562;2023-12-22T12:58:05;94646.44;;;5.62;63.83
28000;BME280;15328;50.860;10.562;2023-12-22T13:03:06;94651.81;;;5.55;63.82
28000;BME280;15328;50.860;10.562;2023-12-22T13:08:10;94651.50;;;5.51;64.21
28000;BME280;15328;50.860;10.562;2023-12-22T13:13:11;94657.91;;;5.55;63.88
28000;BME280;15328;50.860;10.562;2023-12-22T13:18:12;94642.09;;;5.55;62.33
28000;BME280;15328;50.860;10.562;2023-12-22T13:23:17;94654.81;;;5.58;61.96
28000;BME280;15328;50.860;10.562;2023-12-22T13:28:25;94658.22;;;5.71;61.62
28000;BME280;15328;50.860;10.562;2023-12-22T13:33:26;94661.69;;;5.71;60.82
28000;BME280;15328;50.860;10.562;2023-12-22T13:38:29;94646.19;;;5.75;60.90
28000;BME280;15328;50.860;10.562;2023-12-22T13:43:30;94633.00;;;5.75;60.65
28000;BME280;15328;50.860;10.562;2023-12-22T13:48:30;94603.53;;;5.78;61.11
28000;BME280;15328;50.860;10.562;2023-12-22T13:53:31;94611.78;;;5.70;61.09
28000;BME280;15328;50.860;10.562;2023-12-22T13:58:43;94615.56;;;5.74;60.23
28000;BME280;15328;50.860;10.562;2023-12-22T14:03:43;94631.28;;;5.80;61.04
28000;BME280;15328;50.860;10.562;2023-12-22T14:08:46;94625.69;;;5.77;61.23
28000;BME280;15328;50.860;10.562;2023-12-22T14:13:47;94628.09;;;5.90;61.38
28000;BME280;15328;50.860;10.562;2023-12-22T14:18:47;94625.41;;;6.02;61.77
28000;BME280;15328;50.860;10.562;2023-12-22T14:23:48;94612.56;;;6.05;61.73
28000;BME280;15328;50.860;10.562;2023-12-22T14:28:49;94607.88;;;6.07;61.79
28000;BME280;15328;50.860;10.562;2023-12-22T14:33:51;94610.50;;;5.96;62.63
28000;BME280;15328;50.860;10.562;2023-12-22T14:38:51;94612.69;;;5.99;62.98
28000;BME280;15328;50.860;10.562;2023-12-22T14:43:52;94619.69;;;6.05;63.14
28000;BME280;15328;50.860;10.562;2023-12-22T14:48:52;94609.81;;;6.00;63.05
28000;BME280;15328;50.860;10.562;2023-12-22T14:53:52;94622.44;;;5.98;63.77
28000;BME280;15328;50.860;10.562;2023-12-22T14:58:53;94615.22;;;5.94;64.46
28000;BME280;15328;50.860;10.562;2023-12-22T15:03:53;94631.06;;;5.94;65.35
28000;BME280;15328;50.860;10.562;2023-12-22T15:08:54;94598.13;;;5.96;65.50
28000;BME280;15328;50.860;10.562;2023-12-22T15:13:54;94606.72;;;6.03;65.86
28000;BME280;15328;50.860;10.562;2023-12-22T15:18:55;94598.44;;;6.11;65.73
28000;BME280;15328;50.860;10.562;2023-12-22T15:23:55;94593.72;;;6.13;65.66
28000;BME280;15328;50.860;10.562;2023-12-22T15:28:55;94592.13;;;6.12;66.01
28000;BME280;15328;50.860;10.562;2023-12-22T15:33:56;94572.84;;;6.12;66.22
28000;BME280;15328;50.860;10.562;2023-12-22T15:38:57;94573.63;;;6.12;66.51
28000;BME280;15328;50.860;10.562;2023-12-22T15:43:57;94569.09;;;6.25;66.32
28000;BME280;15328;50.860;10.562;2023-12-22T15:48:58;94562.75;;;6.37;66.45
28000;BME280;15328;50.860;10.562;2023-12-22T15:53:58;94584.53;;;6.44;66.38
28000;BME280;15328;50.860;10.562;2023-12-22T15:58:59;94577.59;;;6.55;66.57
28000;BME280;15328;50.860;10.562;2023-12-22T16:03:59;94575.34;;;6.47;66.93
28000;BME280;15328;50.860;10.562;2023-12-22T16:08:59;94557.88;;;6.46;67.26
28000;BME280;15328;50.860;10.562;2023-12-22T16:14:00;94573.34;;;6.54;67.26
28000;BME280;15328;50.860;10.562;2023-12-22T16:19:00;94573.34;;;6.54;67.42
28000;BME280;15328;50.860;10.562;2023-12-22T16:24:01;94577.78;;;6.65;67.45
28000;BME280;15328;50.860;10.562;2023-12-22T16:29:01;94582.88;;;6.55;68.25
28000;BME280;15328;50.860;10.562;2023-12-22T16:34:01;94571.41;;;6.49;68.67
28000;BME280;15328;50.860;10.562;2023-12-22T16:39:02;94584.13;;;6.36;69.25
28000;BME280;15328;50.860;10.562;2023-12-22T16:44:04;94610.16;;;6.44;69.41
28000;BME280;15328;50.860;10.562;2023-12-22T16:49:04;94608.47;;;6.55;68.73
28000;BME280;15328;50.860;10.562;2023-12-22T16:54:06;94602.88;;;6.51;68.89
28000;BME280;15328;50.860;10.562;2023-12-22T16:59:07;94604.47;;;6.52;69.14
28000;BME280;15328;50.860;10.562;2023-12-22T17:04:07;94600.47;;;6.49;69.48
28000;BME280;15328;50.860;10.562;2023-12-22T17:09:07;94602.38;;;6.37;69.68
28000;BME280;15328;50.860;10.562;2023-12-22T17:14:08;94600.53;;;6.38;70.40
28000;BME280;15328;50.860;10.562;2023-12-22T17:19:08;94614.97;;;6.47;70.31
28000;BME280;15328;50.860;10.562;2023-12-22T17:24:09;94612.16;;;6.54;70.17
28000;BME280;15328;50.860;10.562;2023-12-22T17:29:09;94595.00;;;6.68;69.84
28000;BME280;15328;50.860;10.562;2023-12-22T17:34:10;94594.28;;;6.72;69.64
28000;BME280;15328;50.860;10.562;2023-12-22T17:39:10;94633.44;;;6.75;69.48
28000;BME280;15328;50.860;10.562;2023-12-22T17:44:10;94647.31;;;6.82;69.54
28000;BME280;15328;50.860;10.562;2023-12-22T17:49:11;94627.06;;;6.88;69.35
28000;BME280;15328;50.860;10.562;2023-12-22T17:54:13;94660.72;;;6.93;69.11
28000;BME280;15328;50.860;10.562;2023-12-22T17:59:13;94646.22;;;6.95;69.36
28000;BME280;15328;50.860;10.562;2023-12-22T18:04:14;94642.53;;;6.96;69.05
28000;BME280;15328;50.860;10.562;2023-12-22T18:09:14;94651.00;;;6.81;68.95
28000;BME280;15328;50.860;10.562;2023-12-22T18:14:14;94649.72;;;6.84;69.16
28000;BME280;15328;50.860;10.562;2023-12-22T18:19:15;94648.78;;;6.90;69.37
28000;BME280;15328;50.860;10.562;2023-12-22T18:24:15;94653.06;;;6.79;68.84
28000;BME280;15328;50.860;10.562;2023-12-22T18:29:17;94667.78;;;6.75;69.11
28000;BME280;15328;50.860;10.562;2023-12-22T18:34:17;94671.06;;;6.66;68.76
28000;BME280;15328;50.860;10.562;2023-12-22T18:39:18;94650.41;;;6.51;68.01
28000;BME280;15328;50.860;10.562;2023-12-22T18:44:18;94648.63;;;6.40;68.08
28000;BME280;15328;50.860;10.562;2023-12-22T18:49:18;94660.00;;;6.29;68.11
28000;BME280;15328;50.860;10.562;2023-12-22T18:54:20;94663.69;;;6.28;67.32
28000;BME280;15328;50.860;10.562;2023-12-22T18:59:20;94656.13;;;6.31;66.65
28000;BME280;15328;50.860;10.562;2023-12-22T19:04:21;94655.25;;;6.14;65.92
28000;BME280;15328;50.860;10.562;2023-12-22T19:09:21;94670.94;;;6.20;66.05
28000;BME280;15328;50.860;10.562;2023-12-22T19:14:21;94689.81;;;6.12;64.58
28000;BME280;15328;50.860;10.562;2023-12-22T19:19:22;94685.00;;;6.09;64.09
28000;BME280;15328;50.860;10.562;2023-12-22T19:24:22;94697.28;;;6.04;63.44
28000;BME280;15328;50.860;10.562;2023-12-22T19:29:23;94706.44;;;6.13;62.67
28000;BME280;15328;50.860;10.562;2023-12-22T19:34:23;94707.94;;;6.09;62.41
28000;BME280;15328;50.860;10.562;2023-12-22T19:39:24;94701.38;;;6.00;62.03
28000;BME280;15328;50.860;10.562;2023-12-22T19:44:24;94703.38;;;6.04;61.29
28000;BME280;15328;50.860;10.562;2023-12-22T19:49:27;94700.00;;;5.97;61.49
28000;BME280;15328;50.860;10.562;2023-12-22T19:54:27;94688.75;;;6.02;61.86
28000;BME280;15328;50.860;10.562;2023-12-22T19:59:28;94715.53;;;6.05;61.66
28000;BME280;15328;50.860;10.562;2023-12-22T20:04:29;94720.56;;;6.07;61.35
28000;BME280;15328;50.860;10.562;2023-12-22T20:09:29;94760.25;;;6.00;61.53
28000;BME280;15328;50.860;10.562;2023-12-22T20:14:29;94775.75;;;5.97;61.53
28000;BME280;15328;50.860;10.562;2023-12-22T20:19:30;94772.22;;;6.03;61.74
28000;BME280;15328;50.860;10.562;2023-12-22T20:24:30;94797.69;;;5.97;61.30
28000;BME280;15328;50.860;10.562;2023-12-22T20:29:31;94797.94;;;6.07;61.58
28000;BME280;15328;50.860;10.562;2023-12-22T20:34:31;94791.16;;;6.11;61.60
28000;BME280;15328;50.860;10.562;2023-12-22T20:39:34;94776.47;;;6.15;61.20
28000;BME280;15328;50.860;10.562;2023-12-22T20:44:35;94798.50;;;6.21;61.35
28000;BME280;15328;50.860;10.562;2023-12-22T20:49:35;94794.59;;;6.24;60.71
28000;BME280;15328;50.860;10.562;2023-12-22T20:54:40;94839.59;;;6.17;60.51
28000;BME280;15328;50.860;10.562;2023-12-22T20:59:40;94861.41;;;6.12;61.79
28000;BME280;15328;50.860;10.562;2023-12-22T21:04:41;94878.28;;;6.11;62.25
28000;BME280;15328;50.860;10.562;2023-12-22T21:09:41;94872.63;;;5.96;63.40
28000;BME280;15328;50.860;10.562;2023-12-22T21:14:42;94879.28;;;5.99;63.89
28000;BME280;15328;50.860;10.562;2023-12-22T21:19:43;94877.63;;;5.86;63.64
28000;BME280;15328;50.860;10.562;2023-12-22T21:24:43;94909.69;;;5.89;64.13
28000;BME280;15328;50.860;10.562;2023-12-22T21:29:43;94874.63;;;5.82;64.44
28000;BME280;15328;50.860;10.562;2023-12-22T21:34:44;94870.63;;;5.80;64.67
28000;BME280;15328;50.860;10.562;2023-12-22T21:39:44;94881.13;;;5.68;65.74
28000;BME280;15328;50.860;10.562;2023-12-22T21:44:47;94880.44;;;5.73;65.64
28000;BME280;15328;50.860;10.562;2023-12-22T21:49:48;94886.44;;;5.80;65.26
28000;BME280;15328;50.860;10.562;2023-12-22T21:54:48;94894.97;;;5.64;65.26
28000;BME280;15328;50.860;10.562;2023-12-22T21:59:49;94905.88;;;5.67;65.18
28000;BME280;15328;50.860;10.562;2023-12-22T22:04:49;94899.69;;;5.62;64.75
28000;BME280;15328;50.860;10.562;2023-12-22T22:09:50;94916.34;;;5.74;64.68
28000;BME280;15328;50.860;10.562;2023-12-22T22:14:50;94937.47;;;5.74;65.25
28000;BME280;15328;50.860;10.562;2023-12-22T22:19:51;94931.09;;;5.81;65.07
28000;BME280;15328;50.860;10.562;2023-12-22T22:24:51;94940.09;;;5.74;65.29
28000;BME280;15328;50.860;10.562;2023-12-22T22:29:51;94948.41;;;5.77;65.41
28000;BME280;15328;50.860;10.562;2023-12-22T22:34:52;94957.53;;;5.75;65.90
28000;BME280;15328;50.860;10.562;2023-12-22T22:39:52;94966.63;;;5.79;65.78
28000;BME280;15328;50.860;10.562;2023-12-22T22:44:53;94982.19;;;5.69;65.98
28000;BME280;15328;50.860;10.562;2023-12-22T22:49:53;94964.38;;;5.64;66.54
28000;BME280;15328;50.860;10.562;2023-12-22T22:54:54;94978.50;;;5.70;66.58
28000;BME280;15328;50.860;10.562;2023-12-22T22:59:54;95000.16;;;5.60;66.59
28000;BME280;15328;50.860;10.562;2023-12-22T23:04:54;94997.50;;;5.60;66.89
28000;BME280;15328;50.860;10.562;2023-12-22T23:09:56;94997.75;;;5.58;67.10
28000;BME280;15328;50.860;10.562;2023-12-22T23:14:57;95005.06;;;5.56;67.26
28000;BME280;15328;50.860;10.562;2023-12-22T23:19:58;95012.31;;;5.61;67.67
28000;BME280;15328;50.860;10.562;2023-12-22T23:24:59;95002.28;;;5.51;67.37
28000;BME280;15328;50.860;10.562;2023-12-22T23:30:00;95015.25;;;5.53;67.92
28000;BME280;15328;50.860;10.562;2023-12-22T23:35:05;95016.78;;;5.61;67.41
28000;BME280;15328;50.860;10.562;2023-12-22T23:40:07;95017.94;;;5.65;66.55
28000;BME280;15328;50.860;10.562;2023-12-22T23:45:08;95023.31;;;5.58;66.63
28000;BME280;15328;50.860;10.562;2023-12-22T23:50:09;95038.91;;;5.59;66.54
28000;BME280;15328;50.860;10.562;2023-12-22T23:55:10;95017.94;;;5.65;65.94
